RJSF/FKS METAR and TAF weather

Enter ICAO airport designator
Station Type Date Time Source
RJSF METAR 2024/04/15 08:00 UTC NOAA

RJSF 150800Z 12009KT 090V150 CAVOK 21/10 Q1019


Station Type Date Time Source
RJSF Decoded METAR 2024/04/15 08:00 UTC NOAA

Fukushima Airport, Japan (RJSF) 37-14N 140-26E 375M
Apr 15, 2024 - 04:00 AM EDT / 2024.04.15 0800 UTC
Wind: from the ESE (120 degrees) at 10 MPH (9 KT) (direction variable):0
Visibility: greater than 7 mile(s):0
Temperature: 69 F (21 C)
Dew Point: 50 F (10 C)
Relative Humidity: 49%
Pressure (altimeter): 30.09 in. Hg (1019 hPa)
ob: RJSF 150800Z 12009KT 090V150 CAVOK 21/10 Q1019
cycle: 8

Station Type Date Time Source
RJSF TAF 2024/04/15 06:30 UTC NOAA